createdAt,value
2023-03-17T00:02:22.189Z,6.57
2023-03-17T00:04:51.875Z,8.65
2023-03-17T00:07:21.565Z,10.27
2023-03-17T00:09:51.144Z,7.10
2023-03-17T00:12:21.053Z,4.78
2023-03-17T00:14:50.735Z,8.30
2023-03-17T00:17:20.344Z,7.03
2023-03-17T00:19:50.252Z,7.68
2023-03-17T00:22:21.331Z,5.82
2023-03-17T00:24:51.174Z,8.88
2023-03-17T00:27:20.786Z,7.68
2023-03-17T00:29:50.420Z,6.18
2023-03-17T00:32:21.754Z,12.40
2023-03-17T00:34:51.400Z,6.45
2023-03-17T00:37:21.660Z,9.13
2023-03-17T00:39:51.668Z,8.45
2023-03-17T00:42:21.238Z,8.63
2023-03-17T00:44:50.753Z,10.20
2023-03-17T00:47:20.382Z,11.07
2023-03-17T00:49:50.440Z,12.30
2023-03-17T00:52:20.373Z,5.40
2023-03-17T00:54:49.971Z,10.63
2023-03-17T00:57:20.077Z,6.78
2023-03-17T00:59:49.660Z,9.48
2023-03-17T01:02:19.931Z,9.90
2023-03-17T01:04:59.734Z,13.10
2023-03-17T01:07:33.633Z,7.95
2023-03-17T01:10:03.206Z,10.75
2023-03-17T01:12:32.806Z,9.05
2023-03-17T01:15:02.411Z,8.00
2023-03-17T01:17:31.954Z,10.25
2023-03-17T01:20:01.473Z,9.85
2023-03-17T01:22:31.467Z,9.23
2023-03-17T01:25:01.055Z,9.30
2023-03-17T01:27:31.370Z,7.82
2023-03-17T01:30:00.951Z,11.55
2023-03-17T01:32:30.608Z,7.40
2023-03-17T01:35:00.560Z,8.93
2023-03-17T01:37:30.213Z,10.63
2023-03-17T01:39:59.732Z,8.90
2023-03-17T01:42:30.589Z,12.52
2023-03-17T01:45:02.873Z,6.88
2023-03-17T01:47:33.496Z,10.10
2023-03-17T01:50:09.031Z,12.43
2023-03-17T01:52:41.267Z,13.07
2023-03-17T01:55:16.640Z,9.85
2023-03-17T01:57:57.909Z,10.82
2023-03-17T02:00:28.475Z,8.10
2023-03-17T02:02:59.289Z,9.50
2023-03-17T02:05:34.526Z,9.43
2023-03-17T02:08:04.747Z,8.27
2023-03-17T02:10:35.049Z,11.00
2023-03-17T02:13:07.259Z,10.15
2023-03-17T02:15:52.379Z,6.88
2023-03-17T02:18:24.241Z,6.32
2023-03-17T02:21:16.954Z,9.93
2023-03-17T02:23:47.003Z,7.82
2023-03-17T02:26:16.971Z,7.97
2023-03-17T02:28:47.765Z,7.47
2023-03-17T02:31:18.361Z,10.65
2023-03-17T02:33:48.254Z,8.98
2023-03-17T02:36:17.907Z,10.23
2023-03-17T02:38:47.797Z,8.57
2023-03-17T02:41:18.440Z,10.20
2023-03-17T02:43:48.523Z,8.20
2023-03-17T02:46:18.346Z,8.55
2023-03-17T02:48:48.119Z,9.63
2023-03-17T02:51:18.064Z,11.95
2023-03-17T02:53:47.736Z,8.77
2023-03-17T02:56:17.344Z,6.78
2023-03-17T02:58:47.075Z,8.38
2023-03-17T03:01:17.208Z,9.30
2023-03-17T03:03:47.483Z,11.23
2023-03-17T03:06:17.915Z,9.52
2023-03-17T03:08:50.602Z,8.95
2023-03-17T03:11:20.743Z,9.40
2023-03-17T03:13:52.964Z,6.97
2023-03-17T03:16:23.438Z,6.50
2023-03-17T03:18:53.057Z,5.72
2023-03-17T03:21:23.585Z,6.95
2023-03-17T03:23:53.209Z,7.57
2023-03-17T03:26:23.056Z,6.95
2023-03-17T03:28:53.521Z,6.28
2023-03-17T03:31:23.276Z,5.85
2023-03-17T03:33:53.090Z,6.72
2023-03-17T03:36:24.048Z,5.30
2023-03-17T03:38:53.677Z,5.85
2023-03-17T03:41:23.400Z,8.80
2023-03-17T03:43:53.853Z,9.10
2023-03-17T03:46:23.734Z,8.38
2023-03-17T03:48:53.705Z,4.90
2023-03-17T03:51:23.291Z,6.18
2023-03-17T03:53:52.918Z,4.32
2023-03-17T03:56:22.610Z,8.35
2023-03-17T03:58:52.821Z,6.35
2023-03-17T04:01:22.468Z,7.65
2023-03-17T04:03:52.783Z,9.52
2023-03-17T04:09:10.854Z,8.20
2023-03-17T04:11:40.441Z,8.75
2023-03-17T04:14:10.153Z,5.28
2023-03-17T04:16:41.620Z,6.10
2023-03-17T04:19:12.875Z,6.30
2023-03-17T04:21:42.672Z,5.22
2023-03-17T04:24:12.436Z,7.05
2023-03-17T04:26:42.808Z,5.22
2023-03-17T04:29:17.050Z,7.43
2023-03-17T04:31:46.671Z,5.15
2023-03-17T04:34:19.607Z,4.78
2023-03-17T04:36:50.499Z,4.78
2023-03-17T04:39:20.170Z,7.57
2023-03-17T04:41:49.726Z,6.38
2023-03-17T04:44:19.377Z,4.22
2023-03-17T04:46:48.932Z,8.15
2023-03-17T04:49:18.689Z,6.90
2023-03-17T04:51:48.383Z,6.70
2023-03-17T04:54:18.154Z,7.90
2023-03-17T04:56:48.000Z,10.18
2023-03-17T04:59:17.804Z,14.27
2023-03-17T05:01:47.608Z,17.48
2023-03-17T05:04:30.766Z,15.45
2023-03-17T05:07:01.771Z,17.88
2023-03-17T05:09:31.437Z,12.20
2023-03-17T05:12:01.040Z,10.98
2023-03-17T06:09:49.333Z,6.63
2023-03-17T06:12:19.043Z,7.00
2023-03-17T06:14:49.308Z,8.52
2023-03-17T06:17:19.274Z,6.75
2023-03-17T06:19:49.605Z,6.57
2023-03-17T06:22:19.471Z,4.43
2023-03-17T06:24:49.448Z,4.78
2023-03-17T06:27:19.005Z,5.93
2023-03-17T06:29:49.008Z,4.60
2023-03-17T06:32:20.868Z,4.53
2023-03-17T06:34:50.933Z,2.97
2023-03-17T06:37:21.014Z,6.05
2023-03-17T06:39:50.723Z,6.22
2023-03-17T06:42:20.747Z,5.78
2023-03-17T06:44:53.821Z,6.65
2023-03-17T06:47:25.956Z,6.65
2023-03-17T06:49:55.933Z,4.40
2023-03-17T06:52:25.694Z,4.75
2023-03-17T06:54:55.294Z,4.25
2023-03-17T06:57:24.984Z,4.28
2023-03-17T06:59:54.574Z,4.68
2023-03-17T07:02:24.531Z,2.75
2023-03-17T07:04:54.180Z,5.85
2023-03-17T07:07:23.784Z,2.53
2023-03-17T07:09:54.294Z,3.13
2023-03-17T07:12:24.921Z,7.15
2023-03-17T07:14:54.714Z,4.97
2023-03-17T07:17:24.429Z,3.78
2023-03-17T07:19:54.282Z,3.58
2023-03-17T07:22:24.491Z,6.82
2023-03-17T07:24:54.154Z,5.03
2023-03-17T07:27:26.815Z,3.38
2023-03-17T07:29:56.496Z,5.78
2023-03-17T07:32:26.289Z,6.50
2023-03-17T07:34:56.207Z,5.32
2023-03-17T07:37:26.472Z,4.78
2023-03-17T07:39:56.097Z,5.38
2023-03-17T07:42:25.683Z,4.13
2023-03-17T07:44:55.296Z,3.13
2023-03-17T07:47:25.226Z,4.05
2023-03-17T07:49:54.985Z,5.30
2023-03-17T07:52:24.577Z,3.65
2023-03-17T07:54:54.750Z,3.08
2023-03-17T07:57:24.484Z,3.78
2023-03-17T07:59:54.232Z,6.53
2023-03-17T08:02:24.329Z,5.00
2023-03-17T08:04:55.432Z,4.47
2023-03-17T08:07:25.176Z,4.88
2023-03-17T08:09:55.425Z,5.88
2023-03-17T08:12:25.630Z,3.33
2023-03-17T08:14:56.895Z,3.92
2023-03-17T08:17:29.251Z,4.18
2023-03-17T08:20:00.189Z,5.72
2023-03-17T08:22:30.793Z,4.85
2023-03-17T08:25:00.471Z,6.03
2023-03-17T08:27:32.491Z,6.45
2023-03-17T08:30:03.845Z,6.13
2023-03-17T08:32:33.498Z,5.40
2023-03-17T08:35:03.260Z,7.88
2023-03-17T08:37:33.055Z,6.05
2023-03-17T08:40:03.549Z,7.32
2023-03-17T08:42:33.752Z,4.70
2023-03-17T08:45:03.441Z,7.80
2023-03-17T08:47:33.457Z,4.78
2023-03-17T08:50:03.296Z,4.28
2023-03-17T08:52:33.248Z,4.15
2023-03-17T08:55:03.197Z,10.18
2023-03-17T08:57:33.621Z,3.33
2023-03-17T09:00:03.798Z,3.90
2023-03-17T09:02:33.441Z,4.25
2023-03-17T09:05:04.102Z,5.18
2023-03-17T09:07:34.738Z,4.97
2023-03-17T09:10:06.631Z,6.55
2023-03-17T09:12:36.470Z,4.15
2023-03-17T09:15:07.055Z,2.80
2023-03-17T09:17:36.749Z,4.88
2023-03-17T09:20:08.101Z,3.58
2023-03-17T09:22:37.738Z,4.97
2023-03-17T09:25:07.821Z,4.25
2023-03-17T09:27:37.873Z,3.92
2023-03-17T09:30:07.799Z,6.47
2023-03-17T09:32:37.777Z,5.88
2023-03-17T09:35:07.923Z,4.95
2023-03-17T09:37:37.539Z,6.28
2023-03-17T09:40:10.568Z,5.35
2023-03-17T09:42:43.075Z,4.30
2023-03-17T09:45:15.510Z,4.95
2023-03-17T09:48:13.746Z,4.20
2023-03-17T09:50:53.266Z,5.55
2023-03-17T09:53:35.681Z,4.82
2023-03-17T09:56:15.782Z,4.00
2023-03-17T09:58:54.030Z,4.55
2023-03-17T10:01:25.044Z,4.28
2023-03-17T10:03:55.206Z,3.83
2023-03-17T10:06:49.164Z,4.57
2023-03-17T10:09:30.571Z,5.13
2023-03-17T10:12:47.725Z,5.53
2023-03-17T10:15:26.574Z,4.20
2023-03-17T10:17:56.812Z,4.22
2023-03-17T10:20:35.584Z,4.78
2023-03-17T10:23:11.850Z,4.95
2023-03-17T10:25:42.267Z,4.93
2023-03-17T10:28:34.158Z,7.78
2023-03-17T10:31:39.416Z,4.13
2023-03-17T10:34:18.771Z,6.20
2023-03-17T10:36:55.835Z,4.50
2023-03-17T10:39:26.593Z,4.78
2023-03-17T10:42:03.050Z,4.65
2023-03-17T10:45:07.440Z,3.85
2023-03-17T10:47:46.208Z,5.18
2023-03-17T10:50:31.464Z,4.03
2023-03-17T10:53:05.491Z,6.85
2023-03-17T10:55:44.183Z,5.15
2023-03-17T10:58:37.771Z,4.05
2023-03-17T11:01:39.835Z,3.70
2023-03-17T11:04:30.670Z,4.35
2023-03-17T11:07:03.126Z,4.30
2023-03-17T11:09:38.311Z,5.40
2023-03-17T11:12:15.432Z,3.58
2023-03-17T11:14:46.434Z,4.53
2023-03-17T11:17:27.547Z,4.03
2023-03-17T11:20:13.490Z,4.88
2023-03-17T11:22:48.136Z,6.30
2023-03-17T11:25:25.162Z,5.70
2023-03-17T11:28:21.401Z,4.15
2023-03-17T11:31:11.375Z,3.53
2023-03-17T11:33:51.687Z,4.72
2023-03-17T11:36:27.663Z,3.60
2023-03-17T11:39:28.774Z,4.65
2023-03-17T11:42:19.625Z,5.05
2023-03-17T11:45:13.309Z,4.15
2023-03-17T11:48:16.716Z,4.40
2023-03-17T11:51:16.940Z,4.07
2023-03-17T11:54:11.225Z,6.05
2023-03-17T11:56:58.911Z,4.60
2023-03-17T11:59:33.093Z,5.40
2023-03-17T12:02:35.084Z,4.72
2023-03-17T12:05:11.295Z,4.97
2023-03-17T12:08:14.297Z,3.95
2023-03-17T12:11:07.675Z,3.70
2023-03-17T12:13:56.784Z,3.55
2023-03-17T12:16:38.741Z,4.55
2023-03-17T12:19:24.336Z,4.93
2023-03-17T12:22:08.715Z,4.78
2023-03-17T12:24:42.333Z,6.20
2023-03-17T12:27:20.317Z,4.40
2023-03-17T12:29:59.829Z,4.30
2023-03-17T12:32:49.351Z,3.88
2023-03-17T12:35:33.603Z,3.40
2023-03-17T12:38:11.021Z,5.03
2023-03-17T12:41:09.839Z,5.15
2023-03-17T12:43:50.950Z,4.57
2023-03-17T12:46:46.114Z,4.10
2023-03-17T12:49:24.739Z,4.22
2023-03-17T12:52:00.210Z,3.95
2023-03-17T12:54:32.082Z,5.03
2023-03-17T12:57:23.818Z,5.45
2023-03-17T13:00:02.749Z,4.65
2023-03-17T13:02:32.626Z,4.57
2023-03-17T13:05:07.497Z,3.95
2023-03-17T13:07:50.723Z,4.20
2023-03-17T13:10:41.371Z,5.40
2023-03-17T13:13:34.154Z,4.63
2023-03-17T13:16:07.256Z,7.03
2023-03-17T13:18:36.877Z,4.70
2023-03-17T13:21:06.438Z,5.55
2023-03-17T13:23:58.119Z,6.65
2023-03-17T13:27:03.873Z,3.55
2023-03-17T13:29:37.090Z,5.60
2023-03-17T13:32:18.996Z,5.93
2023-03-17T13:34:59.754Z,6.75
2023-03-17T13:37:53.335Z,5.95
2023-03-17T13:40:52.243Z,5.25
2023-03-17T13:43:43.447Z,5.90
2023-03-17T13:46:35.659Z,7.68
2023-03-17T13:49:28.124Z,4.75
2023-03-17T13:52:05.946Z,5.30
2023-03-17T13:54:42.696Z,4.47
2023-03-17T13:57:37.204Z,4.40
2023-03-17T14:00:24.097Z,6.95
2023-03-17T14:03:06.416Z,6.03
2023-03-17T14:05:39.467Z,5.70
2023-03-17T14:08:24.233Z,4.40
2023-03-17T14:10:59.005Z,5.20
2023-03-17T14:13:37.533Z,4.95
2023-03-17T14:16:33.646Z,7.13
2023-03-17T14:19:23.636Z,5.05
2023-03-17T14:21:53.349Z,6.63
2023-03-17T14:24:30.805Z,6.28
2023-03-17T14:27:05.962Z,5.50
2023-03-17T14:29:36.568Z,7.47
2023-03-17T14:32:09.242Z,5.30
2023-03-17T14:34:50.204Z,5.57
2023-03-17T14:37:21.264Z,5.20
2023-03-17T14:39:54.762Z,5.05
2023-03-17T14:42:33.091Z,5.78
2023-03-17T14:45:05.884Z,6.18
2023-03-17T14:47:44.798Z,6.45
2023-03-17T14:50:40.598Z,6.10
2023-03-17T14:53:12.281Z,7.85
2023-03-17T14:55:44.270Z,6.07
2023-03-17T14:58:38.007Z,6.38
2023-03-17T15:01:39.264Z,7.20
2023-03-17T15:04:09.349Z,9.45
2023-03-17T15:06:48.764Z,5.47
2023-03-17T15:09:30.394Z,7.43
2023-03-17T15:12:24.649Z,5.68
2023-03-17T15:14:56.491Z,5.70
2023-03-17T15:17:39.426Z,7.65
2023-03-17T15:20:19.356Z,6.20
2023-03-17T15:22:59.765Z,6.38
2023-03-17T15:25:57.224Z,8.98
2023-03-17T15:28:33.465Z,5.78
2023-03-17T15:31:14.512Z,8.05
2023-03-17T15:33:44.669Z,6.07
2023-03-17T15:36:31.793Z,6.55
2023-03-17T15:39:04.909Z,7.70
2023-03-17T15:41:34.456Z,6.97
2023-03-17T15:44:05.368Z,7.63
2023-03-17T15:46:35.255Z,6.65
2023-03-17T15:49:11.251Z,8.02
2023-03-17T15:51:41.134Z,5.75
2023-03-17T15:54:16.610Z,8.13
2023-03-17T15:56:46.697Z,8.55
2023-03-17T15:59:16.297Z,7.32
2023-03-17T16:01:46.006Z,7.43
2023-03-17T16:04:15.893Z,7.32
2023-03-17T16:06:47.273Z,5.72
2023-03-17T16:09:19.145Z,7.68
2023-03-17T16:11:49.031Z,6.03
2023-03-17T16:14:18.633Z,7.30
2023-03-17T16:16:48.446Z,8.18
2023-03-17T16:19:22.569Z,6.65
2023-03-17T16:21:53.327Z,7.63
2023-03-17T16:24:26.437Z,7.55
2023-03-17T16:26:56.080Z,6.82
2023-03-17T16:29:25.674Z,7.20
2023-03-17T16:31:55.403Z,6.45
2023-03-17T16:34:25.991Z,9.30
2023-03-17T16:36:56.182Z,7.28
2023-03-17T16:39:27.389Z,7.60
2023-03-17T16:41:57.008Z,7.47
2023-03-17T16:44:26.648Z,8.25
2023-03-17T16:46:56.342Z,8.73
2023-03-17T16:49:27.190Z,7.45
2023-03-17T16:51:56.879Z,8.30
2023-03-17T16:54:26.833Z,8.40
2023-03-17T16:56:56.663Z,8.32
2023-03-17T16:59:31.221Z,10.43
2023-03-17T17:02:02.730Z,9.65
2023-03-17T17:04:36.050Z,8.30
2023-03-17T17:07:05.612Z,8.18
2023-03-17T17:09:35.712Z,9.00
2023-03-17T17:12:05.459Z,10.20
2023-03-17T17:14:35.119Z,8.10
2023-03-17T17:17:05.430Z,9.13
2023-03-17T17:19:35.026Z,8.25
2023-03-17T17:22:04.588Z,11.20
2023-03-17T17:24:34.338Z,8.07
2023-03-17T17:27:03.884Z,8.57
2023-03-17T17:29:33.522Z,8.48
2023-03-17T17:32:03.242Z,9.57
2023-03-17T17:34:32.834Z,10.48
2023-03-17T17:37:02.559Z,7.97
2023-03-17T17:39:32.286Z,9.15
2023-03-17T17:42:02.091Z,10.57
2023-03-17T17:44:32.588Z,9.13
2023-03-17T17:47:02.221Z,9.18
2023-03-17T17:49:32.276Z,11.55
2023-03-17T17:52:02.139Z,8.90
2023-03-17T17:54:31.741Z,8.15
2023-03-17T17:57:02.124Z,9.10
2023-03-17T17:59:32.089Z,8.55
2023-03-17T18:02:02.719Z,9.35
2023-03-17T18:04:32.549Z,7.88
2023-03-17T18:07:02.285Z,8.10
2023-03-17T18:09:33.132Z,12.85
2023-03-17T18:12:02.729Z,9.32
2023-03-17T18:14:32.597Z,9.70
2023-03-17T18:17:02.732Z,9.10
2023-03-17T18:19:32.364Z,9.18
2023-03-17T18:22:02.047Z,8.90
2023-03-17T18:24:32.337Z,8.98
2023-03-17T18:27:02.072Z,10.55
2023-03-17T18:29:31.928Z,13.45
2023-03-17T18:32:02.054Z,10.95
2023-03-17T18:34:39.646Z,9.93
2023-03-17T18:37:10.342Z,10.70
2023-03-17T18:39:41.353Z,11.32
2023-03-17T18:42:11.479Z,9.73
2023-03-17T18:44:44.364Z,10.18
2023-03-17T18:47:14.884Z,12.40
2023-03-17T18:49:47.074Z,10.85
2023-03-17T18:52:17.315Z,13.00
2023-03-17T18:54:46.967Z,9.77
2023-03-17T18:57:16.990Z,12.77
2023-03-17T18:59:47.159Z,10.82
2023-03-17T19:02:16.887Z,11.75
2023-03-17T19:04:48.678Z,13.25
2023-03-17T19:07:19.806Z,13.10
2023-03-17T19:09:49.557Z,11.75
2023-03-17T19:12:19.228Z,13.18
2023-03-17T19:14:49.555Z,9.57
2023-03-17T19:17:19.735Z,11.90
2023-03-17T19:19:51.809Z,13.40
2023-03-17T19:22:23.067Z,13.45
2023-03-17T19:24:52.811Z,14.25
2023-03-17T19:27:22.515Z,14.02
2023-03-17T19:29:52.579Z,14.02
2023-03-17T19:32:22.378Z,12.98
2023-03-17T19:34:52.577Z,15.77
2023-03-17T19:37:22.748Z,13.80
2023-03-17T19:39:52.593Z,12.27
2023-03-17T19:42:22.641Z,13.95
2023-03-17T19:44:52.289Z,14.23
2023-03-17T19:47:21.882Z,11.75
2023-03-17T19:49:51.519Z,13.57
2023-03-17T19:52:21.735Z,12.02
2023-03-17T19:54:51.463Z,11.98
2023-03-17T19:57:22.376Z,14.60
2023-03-17T19:59:52.829Z,13.50
2023-03-17T20:02:22.483Z,13.27
2023-03-17T20:04:52.714Z,15.13
2023-03-17T20:07:22.913Z,16.42
2023-03-17T20:09:52.748Z,13.43
2023-03-17T20:12:24.005Z,14.07
2023-03-17T20:14:54.118Z,14.80
2023-03-17T20:17:23.987Z,15.23
2023-03-17T20:19:53.565Z,14.57
2023-03-17T20:22:23.294Z,16.00
2023-03-17T20:24:53.129Z,14.30
2023-03-17T20:27:22.980Z,15.45
2023-03-17T20:29:52.932Z,15.40
2023-03-17T20:32:22.583Z,17.40
2023-03-17T20:34:52.403Z,16.08
2023-03-17T20:37:22.251Z,17.63
2023-03-17T20:39:53.604Z,14.50
2023-03-17T20:42:23.375Z,16.55
2023-03-17T20:44:55.103Z,16.25
2023-03-17T20:47:25.085Z,15.18
2023-03-17T20:49:59.363Z,12.55
2023-03-17T20:52:30.386Z,12.35
2023-03-17T20:55:01.620Z,14.48
2023-03-17T20:57:32.044Z,14.73
2023-03-17T21:00:02.505Z,14.57
2023-03-17T21:02:32.348Z,15.98
2023-03-17T21:05:02.357Z,17.60
2023-03-17T21:07:32.022Z,14.18
2023-03-17T21:10:03.567Z,17.75
2023-03-17T21:12:33.399Z,17.02
2023-03-17T21:15:03.780Z,15.80
2023-03-17T21:17:34.165Z,14.65
2023-03-17T21:20:04.090Z,16.85
2023-03-17T21:22:35.774Z,15.60
2023-03-17T21:25:07.069Z,19.52
2023-03-17T21:27:41.333Z,15.88
2023-03-17T21:30:13.963Z,18.33
2023-03-17T21:32:44.061Z,17.33
2023-03-17T21:35:13.804Z,18.23
2023-03-17T21:37:43.489Z,17.48
2023-03-17T21:40:15.521Z,18.90
2023-03-17T21:42:45.454Z,17.25
2023-03-17T21:45:15.411Z,16.20
2023-03-17T21:47:45.098Z,17.45
2023-03-17T21:50:16.411Z,21.10
2023-03-17T21:52:47.099Z,18.00
2023-03-17T21:55:17.385Z,17.58
2023-03-17T21:57:47.093Z,18.90
2023-03-17T22:00:17.218Z,20.70
2023-03-17T22:02:47.551Z,17.58
2023-03-17T22:05:17.129Z,16.20
2023-03-17T22:07:46.992Z,17.30
2023-03-17T22:10:16.595Z,16.77
2023-03-17T22:12:46.210Z,18.27
2023-03-17T22:15:16.025Z,17.08
2023-03-17T22:17:45.609Z,19.25
2023-03-17T22:20:15.814Z,17.10
2023-03-17T22:22:45.386Z,19.98
2023-03-17T22:25:14.964Z,15.77
2023-03-17T22:27:44.925Z,18.13
2023-03-17T22:30:16.064Z,20.25
2023-03-17T22:32:45.646Z,18.40
2023-03-17T22:35:15.804Z,18.95
2023-03-17T22:37:45.513Z,19.23
2023-03-17T22:40:15.341Z,19.05
2023-03-17T22:42:45.045Z,18.88
2023-03-17T22:45:14.780Z,18.33
2023-03-17T22:47:44.715Z,17.55
2023-03-17T22:50:14.515Z,19.20
2023-03-17T22:52:44.361Z,17.25
2023-03-17T22:55:14.529Z,15.43
2023-03-17T22:57:44.926Z,20.02
2023-03-17T23:00:18.271Z,19.42
2023-03-17T23:02:49.071Z,17.27
2023-03-17T23:05:18.705Z,17.85
2023-03-17T23:07:50.640Z,20.63
2023-03-17T23:10:26.783Z,18.35
2023-03-17T23:12:56.340Z,17.42
2023-03-17T23:15:26.087Z,14.98
2023-03-17T23:17:56.032Z,19.45
2023-03-17T23:20:26.058Z,15.65
2023-03-17T23:22:55.971Z,16.88
2023-03-17T23:25:25.754Z,20.48
2023-03-17T23:27:55.544Z,16.63
2023-03-17T23:30:25.397Z,16.02
2023-03-17T23:32:55.406Z,19.98
2023-03-17T23:35:26.238Z,15.50
2023-03-17T23:37:56.158Z,17.65
2023-03-17T23:40:26.030Z,16.45
2023-03-17T23:42:56.682Z,17.27
2023-03-17T23:45:26.555Z,16.35
2023-03-17T23:47:59.151Z,17.80
2023-03-17T23:50:28.782Z,16.70
2023-03-17T23:52:58.513Z,17.75
2023-03-17T23:55:28.255Z,18.75
2023-03-17T23:57:57.812Z,15.68
